createdAt,value
2023-02-02T00:00:59.126Z,94151.47
2023-02-02T00:06:03.224Z,94153.88
2023-02-02T00:11:07.206Z,94162.84
2023-02-02T00:16:29.343Z,94155.16
2023-02-02T00:21:33.325Z,94170.91
2023-02-02T00:26:38.061Z,94166.03
2023-02-02T00:31:41.296Z,94162.75
2023-02-02T00:36:45.774Z,94152.19
2023-02-02T00:41:49.543Z,94148.22
2023-02-02T00:46:53.171Z,94141.34
2023-02-02T00:51:56.896Z,94113.00
2023-02-02T00:57:00.382Z,94141.03
2023-02-02T01:02:03.817Z,94140.47
2023-02-02T01:07:06.990Z,94116.09
2023-02-02T01:12:10.189Z,94130.38
2023-02-02T01:17:14.565Z,94121.53
2023-02-02T01:22:18.458Z,94108.81
2023-02-02T01:27:23.069Z,94100.91
2023-02-02T01:32:26.162Z,94093.72
2023-02-02T01:37:29.637Z,94081.41
2023-02-02T01:42:32.693Z,94091.88
2023-02-02T01:47:41.550Z,94064.66
2023-02-02T01:52:49.820Z,94058.03
2023-02-02T01:58:14.278Z,94054.97
2023-02-02T02:03:24.599Z,94056.56
2023-02-02T02:08:31.481Z,94047.84
2023-02-02T02:13:58.238Z,94058.63
2023-02-02T02:20:02.423Z,94056.78
2023-02-02T02:32:06.622Z,94030.38
2023-02-02T02:37:35.088Z,94026.25
2023-02-02T02:42:44.306Z,94048.00
2023-02-02T02:47:50.392Z,94046.63
2023-02-02T02:59:39.067Z,94008.81
2023-02-02T03:05:17.758Z,93969.34
2023-02-02T03:10:25.727Z,93991.19
2023-02-02T03:15:29.113Z,94011.06
2023-02-02T03:20:33.245Z,94001.69
2023-02-02T03:25:36.583Z,93997.81
2023-02-02T03:30:42.135Z,93968.69
2023-02-02T03:35:45.544Z,94010.84
2023-02-02T03:40:49.245Z,93999.63
2023-02-02T03:46:05.154Z,94003.06
2023-02-02T03:51:11.850Z,94002.59
2023-02-02T03:56:16.374Z,93994.00
2023-02-02T04:01:29.207Z,94012.09
2023-02-02T04:06:33.197Z,93997.22
2023-02-02T04:11:36.272Z,94001.38
2023-02-02T04:16:40.413Z,93977.88
2023-02-02T04:21:44.101Z,93972.66
2023-02-02T04:26:47.255Z,93990.31
2023-02-02T04:31:52.344Z,94006.03
2023-02-02T04:36:56.658Z,94006.63
2023-02-02T04:42:00.196Z,94017.63
2023-02-02T04:47:04.367Z,94027.59
2023-02-02T04:52:07.467Z,94017.81
2023-02-02T04:57:13.096Z,94042.44
2023-02-02T05:02:16.188Z,94024.66
2023-02-02T05:07:19.367Z,94037.94
2023-02-02T05:12:23.023Z,94021.31
2023-02-02T05:17:26.115Z,94026.94
2023-02-02T05:22:29.156Z,94042.47
2023-02-02T05:27:32.561Z,94026.22
2023-02-02T05:32:36.126Z,94032.88
2023-02-02T05:52:54.861Z,93997.38
2023-02-02T05:57:58.436Z,94056.84
2023-02-02T06:08:39.380Z,94002.41
2023-02-02T06:13:45.906Z,94067.66
2023-02-02T06:18:49.386Z,94077.91
2023-02-02T06:23:52.893Z,93922.50
2023-02-02T06:28:56.107Z,94072.41
2023-02-02T06:34:00.283Z,94078.59
2023-02-02T06:39:05.460Z,94081.97
2023-02-02T06:44:08.412Z,94047.19
2023-02-02T06:49:11.446Z,94064.94
2023-02-02T06:54:15.120Z,94063.72
2023-02-02T06:59:18.400Z,94049.84
2023-02-02T07:04:22.019Z,94080.53
2023-02-02T07:09:25.456Z,94087.75
2023-02-02T07:14:28.805Z,94040.31
2023-02-02T07:19:32.451Z,94092.91
2023-02-02T07:24:35.459Z,94096.69
2023-02-02T07:29:38.878Z,94109.03
2023-02-02T07:34:42.729Z,94100.22
2023-02-02T07:39:46.863Z,94101.91
2023-02-02T07:44:49.825Z,94089.50
2023-02-02T07:49:52.825Z,94100.34
2023-02-02T07:55:05.377Z,94108.03
2023-02-02T08:00:16.588Z,94069.81
2023-02-02T08:05:20.703Z,94118.53
2023-02-02T08:10:23.740Z,94107.44
2023-02-02T08:15:27.104Z,94116.13
2023-02-02T08:20:35.192Z,94139.09
2023-02-02T08:25:38.747Z,94134.13
2023-02-02T08:30:41.801Z,94135.06
2023-02-02T08:35:46.019Z,94132.16
2023-02-02T08:40:50.003Z,94116.00
2023-02-02T08:46:01.722Z,94128.50
2023-02-02T08:51:10.681Z,94126.09
2023-02-02T08:56:13.604Z,94140.47
2023-02-02T09:01:18.485Z,94148.75
2023-02-02T09:06:24.542Z,94147.59
2023-02-02T09:11:28.906Z,94131.56
2023-02-02T09:16:32.340Z,94158.59
2023-02-02T09:21:37.504Z,94143.69
2023-02-02T09:26:41.421Z,94140.94
2023-02-02T09:31:44.589Z,94143.59
2023-02-02T09:36:47.945Z,94127.88
2023-02-02T09:42:23.335Z,94152.66
2023-02-02T09:47:53.887Z,94164.50
2023-02-02T09:53:12.954Z,94168.84
2023-02-02T09:58:29.018Z,94148.00
2023-02-02T10:03:54.849Z,94154.94
2023-02-02T10:09:28.573Z,94147.69
2023-02-02T10:14:42.539Z,94130.53
2023-02-02T10:19:45.796Z,94132.84
2023-02-02T10:24:48.876Z,94096.00
2023-02-02T10:30:03.898Z,94123.84
2023-02-02T10:35:13.990Z,94109.25
2023-02-02T10:40:20.645Z,94107.09
2023-02-02T10:45:23.921Z,94081.16
2023-02-02T10:50:28.538Z,94094.59
2023-02-02T10:55:37.418Z,94077.63
2023-02-02T11:00:46.894Z,94093.00
2023-02-02T11:06:08.442Z,94093.63
2023-02-02T11:11:17.364Z,94073.66
2023-02-02T11:16:23.241Z,94070.84
2023-02-02T11:21:32.509Z,94026.31
2023-02-02T11:27:07.750Z,94051.88
2023-02-02T11:32:21.298Z,94065.72
2023-02-02T11:37:25.156Z,94074.03
2023-02-02T11:42:29.344Z,94039.69
2023-02-02T11:47:34.382Z,94038.19
2023-02-02T11:52:40.495Z,94054.03
2023-02-02T11:58:12.641Z,94051.56
2023-02-02T12:03:28.718Z,94027.50
2023-02-02T12:08:31.814Z,94035.81
2023-02-02T12:13:53.217Z,94036.94
2023-02-02T12:19:27.021Z,94026.75
2023-02-02T12:24:43.674Z,94012.56
2023-02-02T12:30:01.579Z,94026.38
2023-02-02T12:35:13.735Z,94019.72
2023-02-02T12:40:35.238Z,94023.75
2023-02-02T12:45:43.594Z,94026.91
2023-02-02T12:51:04.110Z,94035.84
2023-02-02T12:56:16.616Z,94031.94
2023-02-02T13:01:44.456Z,94021.16
2023-02-02T13:07:28.991Z,94023.69
2023-02-02T13:12:38.578Z,93996.53
2023-02-02T13:17:52.241Z,94009.38
2023-02-02T13:22:59.241Z,93996.00
2023-02-02T13:28:07.002Z,93993.63
2023-02-02T13:33:33.368Z,93982.75
2023-02-02T13:38:42.398Z,93986.75
2023-02-02T13:44:09.834Z,93992.38
2023-02-02T13:49:27.940Z,93934.38
2023-02-02T13:54:39.922Z,93999.81
2023-02-02T13:59:51.920Z,93999.31
2023-02-02T14:05:01.347Z,93998.72
2023-02-02T14:10:04.987Z,94008.03
2023-02-02T14:15:13.443Z,94014.28
2023-02-02T14:20:41.938Z,94001.63
2023-02-02T14:25:45.324Z,94010.34
2023-02-02T14:31:37.582Z,94026.50
2023-02-02T14:36:50.264Z,94025.06
2023-02-02T14:42:15.108Z,94021.56
2023-02-02T14:47:46.069Z,94039.28
2023-02-02T14:53:02.991Z,94044.44
2023-02-02T14:58:07.444Z,94034.16
2023-02-02T15:03:49.459Z,94036.25
2023-02-02T15:09:20.686Z,94028.16
2023-02-02T15:14:27.734Z,94009.47
2023-02-02T15:20:14.639Z,94030.66
2023-02-02T15:25:49.540Z,94042.25
2023-02-02T15:31:01.188Z,94044.19
2023-02-02T15:36:26.101Z,94063.13
2023-02-02T15:41:35.438Z,94066.91
2023-02-02T15:46:38.811Z,94066.88
2023-02-02T15:51:54.287Z,94050.44
2023-02-02T15:56:59.792Z,94060.41
2023-02-02T16:02:27.127Z,94067.56
2023-02-02T16:07:34.454Z,94080.44
2023-02-02T16:12:41.252Z,94085.25
2023-02-02T16:17:44.119Z,94079.53
2023-02-02T16:22:48.121Z,94068.56
2023-02-02T16:27:53.266Z,94091.16
2023-02-02T16:32:56.636Z,94095.06
2023-02-02T16:38:18.769Z,94095.59
2023-02-02T16:43:28.869Z,94061.34
2023-02-02T16:48:39.600Z,94105.94
2023-02-02T16:53:49.821Z,94096.44
2023-02-02T16:58:58.257Z,94116.63
2023-02-02T17:04:02.235Z,94115.31
2023-02-02T17:09:16.879Z,94129.19
2023-02-02T17:14:21.061Z,94135.03
2023-02-02T17:19:25.057Z,94130.84
2023-02-02T17:24:30.062Z,94127.16
2023-02-02T17:29:35.481Z,94156.47
2023-02-02T17:34:38.892Z,94139.38
2023-02-02T17:39:42.302Z,94139.22
2023-02-02T17:44:45.742Z,94150.22
2023-02-02T17:49:49.768Z,94174.34
2023-02-02T17:54:52.709Z,94186.00
2023-02-02T17:59:56.237Z,94189.88
2023-02-02T18:04:59.592Z,94197.91
2023-02-02T18:10:02.990Z,94210.00
2023-02-02T18:15:08.367Z,94203.91
2023-02-02T18:20:15.666Z,94209.88
2023-02-02T18:25:18.634Z,94214.75
2023-02-02T18:30:22.037Z,94204.53
2023-02-02T18:35:26.206Z,94223.06
2023-02-02T18:40:29.395Z,94232.63
2023-02-02T18:45:33.633Z,94219.38
2023-02-02T18:50:37.039Z,94209.31
2023-02-02T18:55:40.903Z,94222.22
2023-02-02T19:00:45.625Z,94226.34
2023-02-02T19:06:08.115Z,94253.75
2023-02-02T19:11:39.300Z,94251.63
2023-02-02T19:16:44.614Z,94249.47
2023-02-02T19:21:48.009Z,94251.28
2023-02-02T19:26:51.135Z,94251.63
2023-02-02T19:32:03.034Z,94254.84
2023-02-02T19:37:24.866Z,94260.59
2023-02-02T19:42:28.736Z,94261.88
2023-02-02T19:47:33.824Z,94234.06
2023-02-02T19:52:37.069Z,94262.94
2023-02-02T19:57:42.206Z,94282.31
2023-02-02T20:03:02.089Z,94287.88
2023-02-02T20:08:30.216Z,94285.97
2023-02-02T20:13:43.005Z,94285.97
2023-02-02T20:18:52.238Z,94290.59
2023-02-02T20:23:55.145Z,94291.06
2023-02-02T20:29:01.168Z,94268.31
2023-02-02T20:34:23.454Z,94257.59
2023-02-02T20:39:33.076Z,94305.28
2023-02-02T20:44:36.762Z,94306.03
2023-02-02T20:49:40.282Z,94278.19
2023-02-02T20:54:43.670Z,94288.38
2023-02-02T20:59:46.999Z,94297.94
2023-02-02T21:04:51.413Z,94306.22
2023-02-02T21:09:54.340Z,94289.97
2023-02-02T21:14:58.337Z,94281.72
2023-02-02T21:20:01.297Z,94310.13
2023-02-02T21:25:05.302Z,94293.63
2023-02-02T21:30:11.017Z,94312.16
2023-02-02T21:35:15.237Z,94298.75
2023-02-02T21:40:30.059Z,94300.19
2023-02-02T21:45:39.396Z,94318.41
2023-02-02T21:50:43.243Z,94301.41
2023-02-02T21:55:59.614Z,94318.88
2023-02-02T22:01:24.361Z,94332.97
2023-02-02T22:06:31.124Z,94307.63
2023-02-02T22:11:49.787Z,94338.59
2023-02-02T22:16:57.173Z,94327.09
2023-02-02T22:22:09.179Z,94341.72
2023-02-02T22:27:24.556Z,94332.72
2023-02-02T22:32:52.938Z,94339.88
2023-02-02T22:37:56.420Z,94310.91
2023-02-02T22:43:05.954Z,94326.34
2023-02-02T22:48:09.345Z,94335.22
2023-02-02T22:53:14.233Z,94347.28
2023-02-02T22:58:17.145Z,94327.75
2023-02-02T23:03:20.214Z,94331.91
2023-02-02T23:08:23.610Z,94314.31
2023-02-02T23:13:27.115Z,94316.91
2023-02-02T23:18:30.035Z,94310.59
2023-02-02T23:23:32.995Z,94305.97
2023-02-02T23:28:36.359Z,94311.66
2023-02-02T23:33:40.061Z,94308.78
2023-02-02T23:38:43.189Z,94325.97
2023-02-02T23:43:46.811Z,94321.25
2023-02-02T23:48:49.857Z,94324.56
2023-02-02T23:53:53.380Z,94328.22
2023-02-02T23:58:57.275Z,94324.56
